createdAt,value
2018-04-20T00:02:09.171Z,6.03
2018-04-20T00:04:36.641Z,5.93
2018-04-20T00:07:04.107Z,7.73
2018-04-20T00:09:31.577Z,7.57
2018-04-20T00:11:59.828Z,9.43
2018-04-20T00:14:28.801Z,8.90
2018-04-20T00:16:56.297Z,11.30
2018-04-20T00:19:24.532Z,6.97
2018-04-20T00:21:52.000Z,9.10
2018-04-20T00:24:19.488Z,11.40
2018-04-20T00:26:47.734Z,10.57
2018-04-20T00:29:15.220Z,6.83
2018-04-20T00:31:43.448Z,6.27
2018-04-20T00:34:10.909Z,7.40
2018-04-20T00:36:38.409Z,7.47
2018-04-20T00:39:06.645Z,7.03
2018-04-20T00:41:34.129Z,10.43
2018-04-20T00:44:02.365Z,8.60
2018-04-20T00:46:29.824Z,7.20
2018-04-20T00:48:57.305Z,9.20
2018-04-20T00:51:24.768Z,8.13
2018-04-20T00:54:04.825Z,7.23
2018-04-20T00:56:33.052Z,7.80
2018-04-20T00:59:00.521Z,7.37
2018-04-20T01:01:28.039Z,5.60
2018-04-20T01:03:55.501Z,6.97
2018-04-20T01:06:23.001Z,7.17
2018-04-20T01:08:50.468Z,8.93
2018-04-20T01:11:17.964Z,7.13
2018-04-20T01:13:45.444Z,7.00
2018-04-20T01:16:12.975Z,8.50
2018-04-20T01:18:40.464Z,9.03
2018-04-20T01:21:07.936Z,9.80
2018-04-20T01:23:35.420Z,10.97
2018-04-20T01:26:02.904Z,7.50
2018-04-20T01:28:30.405Z,8.10
2018-04-20T01:30:57.910Z,8.63
2018-04-20T01:33:48.013Z,7.10
2018-04-20T01:36:15.496Z,7.23
2018-04-20T01:38:43.016Z,8.47
2018-04-20T01:41:10.488Z,8.93
2018-04-20T01:43:37.973Z,7.33
2018-04-20T01:46:05.436Z,9.67
2018-04-20T01:48:32.924Z,8.43
2018-04-20T01:51:00.404Z,7.90
2018-04-20T01:53:27.864Z,9.17
2018-04-20T01:55:55.344Z,8.40
2018-04-20T01:58:22.825Z,6.43
2018-04-20T02:00:51.142Z,8.53
2018-04-20T02:03:19.336Z,8.50
2018-04-20T02:05:46.803Z,8.53
2018-04-20T02:08:14.285Z,6.90
2018-04-20T02:10:41.762Z,9.40
2018-04-20T02:13:09.260Z,7.97
2018-04-20T02:15:36.729Z,8.70
2018-04-20T02:18:04.193Z,6.93
2018-04-20T02:20:31.673Z,8.10
2018-04-20T02:22:59.904Z,7.93
2018-04-20T02:25:27.389Z,9.40
2018-04-20T02:27:54.857Z,7.50
2018-04-20T02:30:23.109Z,8.20
2018-04-20T02:32:50.594Z,10.60
2018-04-20T02:35:18.076Z,10.43
2018-04-20T02:37:45.585Z,10.60
2018-04-20T02:40:13.441Z,8.57
2018-04-20T02:42:40.910Z,9.47
2018-04-20T02:45:09.177Z,9.53
2018-04-20T02:47:36.657Z,9.60
2018-04-20T02:50:04.909Z,10.70
2018-04-20T02:52:33.881Z,7.93
2018-04-20T02:55:01.349Z,7.27
2018-04-20T02:57:28.856Z,8.20
2018-04-20T02:59:56.317Z,9.47
2018-04-20T03:02:23.780Z,9.50
2018-04-20T03:04:51.273Z,6.87
2018-04-20T03:07:18.744Z,8.60
2018-04-20T03:09:46.213Z,7.40
2018-04-20T03:12:14.497Z,8.53
2018-04-20T03:14:42.721Z,8.93
2018-04-20T03:17:10.185Z,8.87
2018-04-20T03:19:37.672Z,9.53
2018-04-20T03:22:05.953Z,7.30
2018-04-20T03:24:34.209Z,8.40
2018-04-20T03:27:01.918Z,7.47
2018-04-20T03:29:29.384Z,8.70
2018-04-20T03:31:56.930Z,10.57
2018-04-20T03:34:24.396Z,11.47
2018-04-20T03:36:51.896Z,8.37
2018-04-20T03:39:19.364Z,11.17
2018-04-20T03:41:47.600Z,8.03
2018-04-20T03:44:15.081Z,9.17
2018-04-20T03:46:42.549Z,9.40
2018-04-20T03:49:10.785Z,9.10
2018-04-20T03:51:38.301Z,9.03
2018-04-20T03:54:05.769Z,10.90
2018-04-20T03:56:33.252Z,8.83
2018-04-20T03:59:00.722Z,8.47
2018-04-20T04:01:28.215Z,8.33
2018-04-20T04:03:56.515Z,11.80
2018-04-20T04:06:24.041Z,10.33
2018-04-20T04:08:52.279Z,10.83
2018-04-20T04:11:19.785Z,13.03
2018-04-20T04:13:47.253Z,8.13
2018-04-20T04:16:26.855Z,9.10
2018-04-20T04:19:06.981Z,11.33
2018-04-20T04:21:46.432Z,9.60
2018-04-20T04:24:25.884Z,8.37
2018-04-20T04:27:05.360Z,9.33
2018-04-20T04:29:32.839Z,9.37
2018-04-20T04:32:00.300Z,9.47
2018-04-20T04:34:27.784Z,9.77
2018-04-20T04:36:55.244Z,9.40
2018-04-20T04:39:23.043Z,8.07
2018-04-20T04:41:50.540Z,8.83
2018-04-20T04:44:18.014Z,8.87
2018-04-20T04:46:45.477Z,8.10
2018-04-20T04:49:12.972Z,9.60
2018-04-20T04:51:40.450Z,11.60
2018-04-20T04:54:07.994Z,13.07
2018-04-20T04:56:35.472Z,11.10
2018-04-20T04:59:02.941Z,13.13
2018-04-20T05:01:30.444Z,12.13
2018-04-20T05:03:58.015Z,17.57
2018-04-20T05:06:25.684Z,10.00
2018-04-20T05:08:53.161Z,16.57
2018-04-20T05:11:20.640Z,17.87
2018-04-20T05:13:48.125Z,17.93
2018-04-20T05:16:16.365Z,21.00
2018-04-20T05:18:43.851Z,19.50
2018-04-20T05:21:12.088Z,17.37
2018-04-20T05:23:39.566Z,26.40
2018-04-20T05:26:07.828Z,18.63
2018-04-20T05:28:35.321Z,20.90
2018-04-20T05:31:02.896Z,20.47
2018-04-20T05:33:30.381Z,16.80
2018-04-20T05:35:57.857Z,18.03
2018-04-20T05:38:25.337Z,18.73
2018-04-20T05:40:53.568Z,17.97
2018-04-20T05:43:21.056Z,20.27
2018-04-20T05:45:49.303Z,13.13
2018-04-20T05:48:16.793Z,10.33
2018-04-20T05:50:45.027Z,10.87
2018-04-20T05:53:12.494Z,19.60
2018-04-20T05:55:39.997Z,17.97
2018-04-20T05:58:07.486Z,16.13
2018-04-20T06:00:34.981Z,13.90
2018-04-20T06:03:03.222Z,13.23
2018-04-20T06:05:30.689Z,12.90
2018-04-20T06:07:58.172Z,16.43
2018-04-20T06:10:26.406Z,14.10
2018-04-20T06:12:53.889Z,11.30
2018-04-20T06:15:21.363Z,14.33
2018-04-20T06:17:49.695Z,14.43
2018-04-20T06:20:17.108Z,12.63
2018-04-20T06:22:44.601Z,10.53
2018-04-20T06:25:12.076Z,11.20
2018-04-20T06:27:39.540Z,10.50
2018-04-20T06:30:07.028Z,8.77
2018-04-20T06:32:35.257Z,9.50
2018-04-20T06:35:02.737Z,9.30
2018-04-20T06:37:30.984Z,7.30
2018-04-20T06:39:58.469Z,12.80
2018-04-20T06:42:25.937Z,15.13
2018-04-20T06:44:54.189Z,12.53
2018-04-20T06:47:21.657Z,10.63
2018-04-20T06:49:49.124Z,8.33
2018-04-20T06:52:17.431Z,8.70
2018-04-20T06:54:44.895Z,8.43
2018-04-20T06:57:12.376Z,6.70
2018-04-20T06:59:39.844Z,11.67
2018-04-20T07:02:07.353Z,8.60
2018-04-20T07:04:34.817Z,6.77
2018-04-20T07:07:02.289Z,8.87
2018-04-20T07:09:30.564Z,7.20
2018-04-20T07:11:58.039Z,7.73
2018-04-20T07:14:25.510Z,7.73
2018-04-20T07:16:53.111Z,9.47
2018-04-20T07:19:20.580Z,8.43
2018-04-20T07:21:48.062Z,8.07
2018-04-20T07:24:15.528Z,6.67
2018-04-20T07:26:43.036Z,7.40
2018-04-20T07:29:10.501Z,8.80
2018-04-20T07:31:38.004Z,6.70
2018-04-20T07:34:06.977Z,10.90
2018-04-20T07:36:34.500Z,7.10
2018-04-20T07:39:01.992Z,6.60
2018-04-20T07:41:29.563Z,9.80
2018-04-20T07:43:56.984Z,7.43
2018-04-20T07:46:24.449Z,7.57
2018-04-20T07:48:51.913Z,7.37
2018-04-20T07:51:19.393Z,7.10
2018-04-20T07:53:46.858Z,6.63
2018-04-20T07:56:15.128Z,9.87
2018-04-20T07:58:42.726Z,8.30
2018-04-20T08:01:10.202Z,7.73
2018-04-20T08:03:37.689Z,21.07
2018-04-20T08:06:05.165Z,11.63
2018-04-20T08:08:33.436Z,10.83
2018-04-20T08:11:01.672Z,12.63
2018-04-20T08:13:29.138Z,10.70
2018-04-20T08:15:56.630Z,15.33
2018-04-20T08:18:24.857Z,7.37
2018-04-20T08:20:52.357Z,11.30
2018-04-20T08:23:20.590Z,6.30
2018-04-20T08:25:48.075Z,7.60
2018-04-20T08:28:15.557Z,8.10
2018-04-20T08:30:43.049Z,6.40
2018-04-20T08:33:10.833Z,5.10
2018-04-20T08:35:38.305Z,4.60
2018-04-20T08:38:05.782Z,6.00
2018-04-20T08:40:34.028Z,5.43
2018-04-20T08:43:01.496Z,6.13
2018-04-20T08:45:28.990Z,3.63
2018-04-20T08:47:56.449Z,7.07
2018-04-20T08:50:23.949Z,6.70
2018-04-20T08:52:51.432Z,8.40
2018-04-20T08:55:19.660Z,7.60
2018-04-20T08:57:47.157Z,7.10
2018-04-20T09:00:14.625Z,7.87
2018-04-20T09:02:42.854Z,5.57
2018-04-20T09:05:10.332Z,5.60
2018-04-20T09:07:37.833Z,6.67
2018-04-20T09:10:05.757Z,4.07
2018-04-20T09:12:33.225Z,3.33
2018-04-20T09:15:01.452Z,3.67
2018-04-20T09:17:28.938Z,3.57
2018-04-20T09:19:56.404Z,3.70
2018-04-20T09:22:24.657Z,4.20
2018-04-20T09:24:52.120Z,5.30
2018-04-20T09:27:19.585Z,3.30
2018-04-20T09:29:47.065Z,3.63
2018-04-20T09:32:14.534Z,5.20
2018-04-20T09:34:42.097Z,5.67
2018-04-20T09:37:09.561Z,5.70
2018-04-20T09:39:37.112Z,9.77
2018-04-20T09:42:04.593Z,4.27
2018-04-20T09:44:32.057Z,8.70
2018-04-20T09:46:59.556Z,6.40
2018-04-20T09:49:27.796Z,4.63
2018-04-20T09:51:55.268Z,6.17
2018-04-20T09:54:22.748Z,4.70
2018-04-20T09:56:50.213Z,4.73
2018-04-20T09:59:17.715Z,4.27
2018-04-20T10:01:45.176Z,7.27
2018-04-20T10:04:16.545Z,5.77
2018-04-20T10:06:44.795Z,4.63
2018-04-20T10:09:12.261Z,7.93
2018-04-20T10:11:40.141Z,8.13
2018-04-20T10:14:08.368Z,12.43
2018-04-20T10:16:35.837Z,10.93
2018-04-20T10:19:03.424Z,9.87
2018-04-20T10:21:30.983Z,9.63
2018-04-20T10:23:58.465Z,8.37
2018-04-20T10:26:25.933Z,8.47
2018-04-20T10:28:53.405Z,7.80
2018-04-20T10:31:20.888Z,9.57
2018-04-20T10:33:48.384Z,7.23
2018-04-20T10:36:16.642Z,8.90
2018-04-20T10:38:44.895Z,10.03
2018-04-20T10:41:12.356Z,8.43
2018-04-20T10:43:39.832Z,5.90
2018-04-20T10:46:08.070Z,9.40
2018-04-20T10:48:35.609Z,7.20
2018-04-20T10:51:03.808Z,11.40
2018-04-20T10:53:31.272Z,8.60
2018-04-20T10:55:58.753Z,6.00
2018-04-20T10:58:26.981Z,9.47
2018-04-20T11:00:54.464Z,5.87
2018-04-20T11:03:21.933Z,7.07
2018-04-20T11:05:50.198Z,5.63
2018-04-20T11:08:17.667Z,8.20
2018-04-20T11:10:45.142Z,5.53
2018-04-20T11:13:12.634Z,9.27
2018-04-20T11:15:40.100Z,8.50
2018-04-20T11:18:07.601Z,9.17
2018-04-20T11:20:35.071Z,6.90
2018-04-20T11:23:02.558Z,10.60
2018-04-20T11:25:30.036Z,10.67
2018-04-20T11:27:58.269Z,6.87
2018-04-20T11:30:25.752Z,11.23
2018-04-20T11:32:53.217Z,9.90
2018-04-20T11:35:20.705Z,6.03
2018-04-20T11:37:48.953Z,6.13
2018-04-20T11:40:16.426Z,5.90
2018-04-20T11:42:44.677Z,5.53
2018-04-20T11:45:12.155Z,5.33
2018-04-20T11:47:40.409Z,4.70
2018-04-20T11:50:07.897Z,5.63
2018-04-20T11:52:36.128Z,7.00
2018-04-20T11:55:03.637Z,5.87
2018-04-20T11:57:31.121Z,7.63
2018-04-20T11:59:58.605Z,6.30
2018-04-20T12:02:26.088Z,5.10
2018-04-20T12:04:54.316Z,6.03
2018-04-20T12:07:21.800Z,7.10
2018-04-20T12:09:49.261Z,4.90
2018-04-20T12:12:17.528Z,3.53
2018-04-20T12:14:44.992Z,5.90
2018-04-20T12:17:12.482Z,6.90
2018-04-20T12:19:39.977Z,7.37
2018-04-20T12:22:07.457Z,6.20
2018-04-20T12:24:34.990Z,6.20
2018-04-20T12:27:02.450Z,5.70
2018-04-20T12:29:30.385Z,7.77
2018-04-20T12:31:57.873Z,6.90
2018-04-20T12:34:25.338Z,5.53
2018-04-20T12:36:52.825Z,6.60
2018-04-20T12:39:20.292Z,5.83
2018-04-20T12:41:48.521Z,5.07
2018-04-20T12:44:16.017Z,5.70
2018-04-20T12:46:43.497Z,6.47
2018-04-20T12:49:11.036Z,7.30
2018-04-20T12:51:39.321Z,4.53
2018-04-20T12:54:07.541Z,4.73
2018-04-20T12:56:35.025Z,7.07
2018-04-20T12:59:03.339Z,8.70
2018-04-20T13:01:30.824Z,8.17
2018-04-20T13:03:58.300Z,7.10
2018-04-20T13:06:25.765Z,8.60
2018-04-20T13:08:53.266Z,8.97
2018-04-20T13:11:20.733Z,6.27
2018-04-20T13:13:48.498Z,7.00
2018-04-20T13:16:15.963Z,5.67
2018-04-20T13:18:43.437Z,7.10
2018-04-20T13:21:10.929Z,9.03
2018-04-20T13:23:39.178Z,7.90
2018-04-20T13:26:06.685Z,7.47
2018-04-20T13:28:34.174Z,6.13
2018-04-20T13:31:02.329Z,10.80
2018-04-20T13:33:29.814Z,9.10
2018-04-20T13:35:57.293Z,7.93
2018-04-20T13:38:25.553Z,5.07
2018-04-20T13:40:53.019Z,6.37
2018-04-20T13:43:21.263Z,12.37
2018-04-20T13:45:48.787Z,6.20
2018-04-20T13:48:16.249Z,7.13
2018-04-20T13:50:43.799Z,8.57
2018-04-20T13:53:11.281Z,9.77
2018-04-20T13:55:38.789Z,6.53
2018-04-20T13:58:06.229Z,8.40
2018-04-20T14:00:34.505Z,6.87
2018-04-20T14:03:02.870Z,8.93
2018-04-20T14:05:31.122Z,6.87
2018-04-20T14:07:58.605Z,7.73
2018-04-20T14:10:26.857Z,4.43
2018-04-20T14:12:54.653Z,8.30
2018-04-20T14:15:22.881Z,7.73
2018-04-20T14:17:50.345Z,6.90
2018-04-20T14:20:17.839Z,5.10
2018-04-20T14:22:45.397Z,7.40
2018-04-20T14:25:13.649Z,6.63
2018-04-20T14:27:41.113Z,7.55
2018-04-20T14:30:08.599Z,9.97
2018-04-20T14:32:36.071Z,7.23
2018-04-20T14:35:03.596Z,7.07
2018-04-20T14:37:31.091Z,9.87
2018-04-20T14:39:58.597Z,7.33
2018-04-20T14:42:26.064Z,7.53
2018-04-20T14:44:53.581Z,6.80
2018-04-20T14:47:21.060Z,9.37
2018-04-20T14:49:48.535Z,8.90
2018-04-20T14:52:16.017Z,7.80
2018-04-20T14:54:43.489Z,8.70
2018-04-20T14:57:11.047Z,17.73
2018-04-20T14:59:38.534Z,48.80
2018-04-20T15:02:06.033Z,14.00
2018-04-20T15:04:33.543Z,10.87
2018-04-20T15:07:01.029Z,9.77
2018-04-20T15:09:28.543Z,14.37
2018-04-20T15:11:56.021Z,12.60
2018-04-20T15:14:23.527Z,7.70
2018-04-20T15:16:51.013Z,10.53
2018-04-20T15:19:18.492Z,11.47
2018-04-20T15:21:45.969Z,5.50
2018-04-20T15:24:13.440Z,9.33
2018-04-20T15:26:41.694Z,9.80
2018-04-20T15:29:09.185Z,8.23
2018-04-20T15:31:36.863Z,8.60
2018-04-20T15:34:04.361Z,6.27
2018-04-20T15:36:31.836Z,10.33
2018-04-20T15:39:00.092Z,7.87
2018-04-20T15:41:28.167Z,6.60
2018-04-20T15:43:55.725Z,7.23
2018-04-20T15:46:23.185Z,6.93
2018-04-20T15:48:50.689Z,10.13
2018-04-20T15:51:18.168Z,9.07
2018-04-20T15:56:19.644Z,6.73
2018-04-20T15:58:47.136Z,7.33
2018-04-20T16:01:15.380Z,5.60
2018-04-20T16:03:42.849Z,9.17
2018-04-20T16:06:10.347Z,7.53
2018-04-20T16:08:37.829Z,8.57
2018-04-20T16:11:05.308Z,8.53
2018-04-20T16:13:32.773Z,9.53
2018-04-20T16:16:00.265Z,13.87
2018-04-20T16:18:27.729Z,6.90
2018-04-20T16:20:55.294Z,8.73
2018-04-20T16:23:22.777Z,7.67
2018-04-20T16:25:50.245Z,10.77
2018-04-20T16:28:17.733Z,9.20
2018-04-20T16:30:45.201Z,11.63
2018-04-20T16:33:13.443Z,5.53
2018-04-20T16:35:41.718Z,7.73
2018-04-20T16:38:09.183Z,8.33
2018-04-20T16:40:36.672Z,7.87
2018-04-20T16:43:04.900Z,8.70
2018-04-20T16:45:32.381Z,10.67
2018-04-20T16:47:59.860Z,10.67
2018-04-20T16:50:28.120Z,7.80
2018-04-20T16:52:56.373Z,10.40
2018-04-20T16:55:23.837Z,6.70
2018-04-20T16:57:51.343Z,9.40
2018-04-20T17:00:18.844Z,11.53
2018-04-20T17:02:46.336Z,9.20
2018-04-20T17:05:14.593Z,8.03
2018-04-20T17:07:42.825Z,9.60
2018-04-20T17:10:10.299Z,8.57
2018-04-20T17:12:37.856Z,7.27
2018-04-20T17:15:05.323Z,9.50
2018-04-20T17:17:33.580Z,10.20
2018-04-20T17:20:01.049Z,8.87
2018-04-20T17:22:30.024Z,9.63
2018-04-20T17:24:57.530Z,8.63
2018-04-20T17:27:25.015Z,12.90
2018-04-20T17:29:52.537Z,10.87
2018-04-20T17:32:20.776Z,9.57
2018-04-20T17:34:48.253Z,8.50
2018-04-20T17:37:15.798Z,10.90
2018-04-20T17:39:43.278Z,10.00
2018-04-20T17:42:11.578Z,9.33
2018-04-20T17:44:39.059Z,8.43
2018-04-20T17:47:06.576Z,9.37
2018-04-20T17:49:34.811Z,8.90
2018-04-20T17:52:02.281Z,13.03
2018-04-20T17:54:29.769Z,8.43
2018-04-20T17:56:57.245Z,9.07
2018-04-20T17:59:24.760Z,7.27
2018-04-20T18:01:53.013Z,10.93
2018-04-20T18:04:20.492Z,13.43
2018-04-20T18:06:48.745Z,11.40
2018-04-20T18:09:17.078Z,8.63
2018-04-20T18:11:44.595Z,12.53
2018-04-20T18:14:12.911Z,9.13
2018-04-20T18:16:40.468Z,12.03
2018-04-20T18:19:07.946Z,10.73
2018-04-20T18:21:35.428Z,9.57
2018-04-20T18:24:02.917Z,8.83
2018-04-20T18:26:31.172Z,11.63
2018-04-20T18:28:58.649Z,11.07
2018-04-20T18:31:26.880Z,7.90
2018-04-20T18:33:55.884Z,9.03
2018-04-20T18:36:23.414Z,7.03
2018-04-20T18:38:51.168Z,8.87
2018-04-20T18:41:18.652Z,5.23
2018-04-20T18:43:46.116Z,6.93
2018-04-20T18:46:13.644Z,9.80
2018-04-20T18:48:41.109Z,7.23
2018-04-20T18:51:08.601Z,10.27
2018-04-20T18:53:36.068Z,12.13
2018-04-20T18:56:04.298Z,11.07
2018-04-20T18:58:31.827Z,13.43
2018-04-20T19:00:59.292Z,14.43
2018-04-20T19:03:26.785Z,14.73
2018-04-20T19:05:54.256Z,14.40
2018-04-20T19:08:22.530Z,14.07
2018-04-20T19:10:50.780Z,17.47
2018-04-20T19:13:18.253Z,15.27
2018-04-20T19:15:46.533Z,14.40
2018-04-20T19:18:14.788Z,17.10
2018-04-20T19:20:43.320Z,17.07
2018-04-20T19:23:10.890Z,16.67
2018-04-20T19:25:38.366Z,16.13
2018-04-20T19:28:05.852Z,16.00
2018-04-20T19:30:33.329Z,17.30
2018-04-20T19:33:01.580Z,20.73
2018-04-20T19:35:29.053Z,22.27
2018-04-20T19:37:57.297Z,19.30
2018-04-20T19:40:24.790Z,16.00
2018-04-20T19:42:53.034Z,16.83
2018-04-20T19:45:20.520Z,17.37
2018-04-20T19:47:48.768Z,17.23
2018-04-20T19:50:16.263Z,17.10
2018-04-20T19:52:43.757Z,16.83
2018-04-20T19:55:11.568Z,14.97
2018-04-20T19:57:39.818Z,14.57
2018-04-20T20:00:08.080Z,13.60
2018-04-20T20:02:35.569Z,16.07
2018-04-20T20:05:03.817Z,16.33
2018-04-20T20:07:31.309Z,16.30
2018-04-20T20:09:59.545Z,14.03
2018-04-20T20:12:27.047Z,15.43
2018-04-20T20:14:54.525Z,14.17
2018-04-20T20:17:22.029Z,16.33
2018-04-20T20:19:51.004Z,14.60
2018-04-20T20:22:18.469Z,13.90
2018-04-20T20:24:45.965Z,14.30
2018-04-20T20:27:13.430Z,17.07
2018-04-20T20:29:40.920Z,13.23
2018-04-20T20:32:08.389Z,13.97
2018-04-20T20:34:35.860Z,11.20
2018-04-20T20:37:03.344Z,11.27
2018-04-20T20:39:30.808Z,9.53
2018-04-20T20:41:58.297Z,10.83
2018-04-20T20:44:25.772Z,11.97
2018-04-20T20:46:53.264Z,10.87
2018-04-20T20:49:21.519Z,7.93
2018-04-20T20:51:48.988Z,10.27
2018-04-20T20:54:17.292Z,6.73
2018-04-20T20:56:44.765Z,6.07
2018-04-20T20:59:12.408Z,8.27
2018-04-20T21:01:39.892Z,6.40
2018-04-20T21:04:07.378Z,6.80
2018-04-20T21:06:34.866Z,9.27
2018-04-20T21:09:02.341Z,8.30
2018-04-20T21:11:29.863Z,7.63
2018-04-20T21:13:57.332Z,8.33
2018-04-20T21:16:24.836Z,9.17
2018-04-20T21:18:52.308Z,8.60
2018-04-20T21:21:19.781Z,9.97
2018-04-20T21:23:48.037Z,11.33
2018-04-20T21:26:15.505Z,9.97
2018-04-20T21:28:42.985Z,9.83
2018-04-20T21:31:10.454Z,9.13
2018-04-20T21:33:39.665Z,7.63
2018-04-20T21:36:07.142Z,10.23
2018-04-20T21:38:34.612Z,9.40
2018-04-20T21:41:02.125Z,7.83
2018-04-20T21:43:29.597Z,7.13
2018-04-20T21:45:57.084Z,7.70
2018-04-20T21:48:26.106Z,9.03
2018-04-20T21:50:53.549Z,6.10
2018-04-20T21:53:21.805Z,6.90
2018-04-20T21:55:49.265Z,7.33
2018-04-20T21:58:16.749Z,6.17
2018-04-20T22:00:44.985Z,9.50
2018-04-20T22:03:12.461Z,16.53
2018-04-20T22:05:39.936Z,6.67
2018-04-20T22:08:07.410Z,7.33
2018-04-20T22:10:34.969Z,7.33
2018-04-20T22:13:02.448Z,8.67
2018-04-20T22:15:29.925Z,11.10
2018-04-20T22:17:58.174Z,7.57
2018-04-20T22:20:25.636Z,7.40
2018-04-20T22:22:53.117Z,6.83
2018-04-20T22:25:22.089Z,8.20
2018-04-20T22:27:49.576Z,6.83
2018-04-20T22:30:17.041Z,8.87
2018-04-20T22:32:45.288Z,10.67
2018-04-20T22:35:12.777Z,10.23
2018-04-20T22:37:41.008Z,11.20
2018-04-20T22:40:08.501Z,11.20
2018-04-20T22:42:36.737Z,11.83
2018-04-20T22:45:04.231Z,14.97
2018-04-20T22:47:32.466Z,11.03
2018-04-20T22:49:59.941Z,11.90
2018-04-20T22:52:27.429Z,11.83
2018-04-20T22:54:54.912Z,15.60
2018-04-20T22:57:22.396Z,11.90
2018-04-20T22:59:49.861Z,13.87
2018-04-20T23:02:17.457Z,11.40
2018-04-20T23:04:45.548Z,13.33
2018-04-20T23:07:13.105Z,14.43
2018-04-20T23:09:40.665Z,13.23
2018-04-20T23:12:08.143Z,13.07
2018-04-20T23:14:35.633Z,13.00
2018-04-20T23:17:03.104Z,15.67
2018-04-20T23:19:31.361Z,11.50
2018-04-20T23:21:58.836Z,16.90
2018-04-20T23:24:27.072Z,14.27
2018-04-20T23:26:54.578Z,15.10
2018-04-20T23:29:22.045Z,15.27
2018-04-20T23:31:49.532Z,15.27
2018-04-20T23:34:17.001Z,13.40
2018-04-20T23:36:44.505Z,14.67
2018-04-20T23:39:11.999Z,17.93
2018-04-20T23:41:39.477Z,15.20
2018-04-20T23:44:06.976Z,18.07
2018-04-20T23:46:34.621Z,15.53
2018-04-20T23:49:02.873Z,17.97
2018-04-20T23:51:30.349Z,13.63
2018-04-20T23:53:58.609Z,18.07
2018-04-20T23:56:26.084Z,16.83
2018-04-20T23:58:54.325Z,17.67
